createdAt,value
2022-11-16T00:01:46.623Z,97891.17
2022-11-16T00:06:49.861Z,97881.23
2022-11-16T00:12:04.196Z,97872.30
2022-11-16T00:17:06.320Z,97868.68
2022-11-16T00:22:08.241Z,97869.55
2022-11-16T00:27:10.147Z,97869.27
2022-11-16T00:32:12.590Z,97869.59
2022-11-16T00:37:14.443Z,97869.30
2022-11-16T00:42:16.316Z,97869.30
2022-11-16T00:47:18.427Z,97863.89
2022-11-16T00:52:20.284Z,97858.92
2022-11-16T00:57:22.262Z,97850.30
2022-11-16T01:02:25.813Z,97848.61
2022-11-16T01:07:27.748Z,97842.59
2022-11-16T01:12:29.686Z,97835.94
2022-11-16T01:17:31.594Z,97841.23
2022-11-16T01:22:37.917Z,97833.50
2022-11-16T01:27:40.829Z,97827.37
2022-11-16T01:32:47.446Z,97823.33
2022-11-16T01:37:50.220Z,97818.36
2022-11-16T01:42:53.068Z,97806.85
2022-11-16T01:47:55.531Z,97805.23
2022-11-16T01:53:05.941Z,97801.61
2022-11-16T01:58:19.913Z,97789.96
2022-11-16T02:03:27.285Z,97779.61
2022-11-16T02:08:57.626Z,97774.76
2022-11-16T02:14:20.420Z,97766.67
2022-11-16T02:20:00.485Z,97762.42
2022-11-16T02:25:05.758Z,97765.10
2022-11-16T02:30:08.623Z,97763.39
2022-11-16T02:35:37.067Z,97762.10
2022-11-16T02:40:46.690Z,97761.39
2022-11-16T02:45:55.477Z,97756.55
2022-11-16T02:50:57.959Z,97753.03
2022-11-16T02:55:59.969Z,97750.20
2022-11-16T03:01:18.272Z,97747.09
2022-11-16T03:06:29.864Z,97748.27
2022-11-16T03:11:55.002Z,97750.68
2022-11-16T03:16:57.957Z,97751.61
2022-11-16T03:22:04.747Z,97745.11
2022-11-16T03:27:22.215Z,97735.98
2022-11-16T03:32:36.827Z,97741.88
2022-11-16T03:37:43.253Z,97738.34
2022-11-16T03:42:49.681Z,97726.66
2022-11-16T03:47:52.445Z,97723.04
2022-11-16T03:52:55.837Z,97711.77
2022-11-16T03:57:58.317Z,97703.56
2022-11-16T04:03:00.254Z,97699.99
2022-11-16T04:08:20.988Z,97691.85
2022-11-16T04:13:47.671Z,97683.91
2022-11-16T04:19:08.349Z,97681.10
2022-11-16T04:24:20.856Z,97682.19
2022-11-16T04:29:23.134Z,97673.76
2022-11-16T04:34:43.882Z,97665.56
2022-11-16T04:39:45.765Z,97657.27
2022-11-16T04:45:06.711Z,97651.20
2022-11-16T04:50:13.725Z,97647.05
2022-11-16T04:55:16.038Z,97642.40
2022-11-16T05:00:19.474Z,97629.20
2022-11-16T05:05:21.773Z,97627.85
2022-11-16T05:10:24.521Z,97630.23
2022-11-16T05:15:27.416Z,97630.44
2022-11-16T05:20:48.450Z,97626.31
2022-11-16T05:25:50.360Z,97626.05
2022-11-16T05:30:52.557Z,97620.80
2022-11-16T05:35:57.430Z,97619.89
2022-11-16T05:40:59.607Z,97623.56
2022-11-16T05:46:02.188Z,97617.71
2022-11-16T05:51:04.106Z,97616.53
2022-11-16T05:56:08.777Z,97613.21
2022-11-16T06:01:13.181Z,97612.73
2022-11-16T06:06:15.410Z,97612.53
2022-11-16T06:11:17.963Z,97618.21
2022-11-16T06:16:20.623Z,97613.20
2022-11-16T06:21:22.923Z,97609.65
2022-11-16T06:26:24.935Z,97615.09
2022-11-16T06:31:26.909Z,97615.75
2022-11-16T06:36:29.959Z,97612.45
2022-11-16T06:41:32.941Z,97614.44
2022-11-16T06:46:35.249Z,97617.52
2022-11-16T06:51:37.814Z,97616.17
2022-11-16T06:56:39.933Z,97617.20
2022-11-16T07:01:43.145Z,97610.85
2022-11-16T07:06:47.698Z,97608.89
2022-11-16T07:11:50.266Z,97609.70
2022-11-16T07:16:59.324Z,97604.98
2022-11-16T07:22:04.386Z,97596.52
2022-11-16T07:27:08.569Z,97589.42
2022-11-16T07:32:11.789Z,97585.90
2022-11-16T07:37:52.686Z,97583.05
2022-11-16T07:42:57.796Z,97578.95
2022-11-16T07:48:06.298Z,97576.50
2022-11-16T07:53:26.778Z,97570.81
2022-11-16T07:58:30.016Z,97567.66
2022-11-16T08:03:34.142Z,97567.07
2022-11-16T08:08:38.876Z,97561.27
2022-11-16T08:13:42.539Z,97561.16
2022-11-16T08:18:45.328Z,97562.04
2022-11-16T08:23:48.260Z,97560.36
2022-11-16T08:28:51.453Z,97557.73
2022-11-16T08:33:54.377Z,97558.10
2022-11-16T08:38:56.545Z,97556.69
2022-11-16T08:44:00.310Z,97553.54
2022-11-16T08:49:02.462Z,97551.52
2022-11-16T08:54:06.382Z,97559.71
2022-11-16T08:59:10.434Z,97562.13
2022-11-16T09:04:15.337Z,97562.92
2022-11-16T09:09:17.180Z,97563.67
2022-11-16T09:14:19.052Z,97563.66
2022-11-16T09:19:21.056Z,97560.32
2022-11-16T09:24:22.900Z,97558.83
2022-11-16T09:29:27.722Z,97553.73
2022-11-16T09:34:29.686Z,97552.02
2022-11-16T09:39:32.684Z,97550.52
2022-11-16T09:45:05.221Z,97546.51
2022-11-16T09:50:19.185Z,97549.19
2022-11-16T09:55:25.998Z,97545.02
2022-11-16T10:00:30.837Z,97536.32
2022-11-16T10:06:06.500Z,97531.38
2022-11-16T10:11:17.500Z,97531.41
2022-11-16T10:16:48.855Z,97526.42
2022-11-16T10:22:09.452Z,97522.58
2022-11-16T10:27:27.710Z,97515.95
2022-11-16T10:32:33.635Z,97507.60
2022-11-16T10:37:39.405Z,97509.15
2022-11-16T10:42:41.287Z,97507.69
2022-11-16T10:48:16.726Z,97504.39
2022-11-16T10:53:36.868Z,97501.91
2022-11-16T10:59:06.322Z,97499.64
2022-11-16T11:04:24.526Z,97495.40
2022-11-16T11:09:27.845Z,97490.87
2022-11-16T11:14:32.691Z,97490.63
2022-11-16T11:19:34.539Z,97487.76
2022-11-16T11:24:45.184Z,97485.65
2022-11-16T11:29:52.958Z,97483.29
2022-11-16T11:34:56.331Z,97477.17
2022-11-16T11:40:27.791Z,97469.73
2022-11-16T11:45:39.655Z,97478.58
2022-11-16T11:50:50.357Z,97481.20
2022-11-16T11:55:57.835Z,97480.30
2022-11-16T12:01:35.601Z,97477.19
2022-11-16T12:07:02.346Z,97468.48
2022-11-16T12:12:22.467Z,97464.27
2022-11-16T12:17:39.153Z,97460.55
2022-11-16T12:23:08.253Z,97454.89
2022-11-16T12:28:42.174Z,97452.98
2022-11-16T12:33:58.593Z,97448.39
2022-11-16T12:39:26.801Z,97449.25
2022-11-16T12:44:37.785Z,97452.86
2022-11-16T12:50:17.422Z,97467.45
2022-11-16T12:55:42.605Z,97464.13
2022-11-16T13:00:50.173Z,97458.47
2022-11-16T13:06:06.680Z,97462.18
2022-11-16T13:11:14.928Z,97467.41
2022-11-16T13:16:18.168Z,97457.74
2022-11-16T13:21:42.004Z,97456.20
2022-11-16T13:27:06.114Z,97454.89
2022-11-16T13:32:24.421Z,97449.90
2022-11-16T13:37:38.293Z,97447.73
2022-11-16T13:42:58.304Z,97443.11
2022-11-16T13:48:03.480Z,97437.15
2022-11-16T13:58:44.004Z,97431.73
2022-11-16T14:03:52.050Z,97427.07
2022-11-16T14:08:55.543Z,97427.29
2022-11-16T14:14:00.959Z,97422.45
2022-11-16T14:19:05.279Z,97414.09
2022-11-16T14:24:25.742Z,97410.92
2022-11-16T14:29:56.215Z,97401.29
2022-11-16T14:35:00.586Z,97388.90
2022-11-16T14:40:16.983Z,97383.27
2022-11-16T14:45:29.524Z,97380.35
2022-11-16T14:50:39.619Z,97382.10
2022-11-16T14:55:46.315Z,97388.17
2022-11-16T15:00:58.665Z,97388.56
2022-11-16T15:06:02.524Z,97390.30
2022-11-16T15:11:08.341Z,97394.98
2022-11-16T15:16:14.774Z,97398.23
2022-11-16T15:21:23.925Z,97402.41
2022-11-16T15:26:25.791Z,97398.89
2022-11-16T15:31:28.852Z,97403.41
2022-11-16T15:36:41.388Z,97401.96
2022-11-16T15:41:44.067Z,97405.04
2022-11-16T15:46:49.189Z,97403.40
2022-11-16T15:51:51.373Z,97403.84
2022-11-16T15:56:56.823Z,97399.10
2022-11-16T16:01:59.049Z,97399.55
2022-11-16T16:07:01.299Z,97398.52
2022-11-16T16:12:23.330Z,97399.28
2022-11-16T16:17:30.170Z,97399.43
2022-11-16T16:22:36.564Z,97400.81
2022-11-16T16:27:40.787Z,97406.98
2022-11-16T16:32:42.719Z,97405.85
2022-11-16T16:37:44.784Z,97400.45
2022-11-16T16:42:49.650Z,97396.13
2022-11-16T16:47:51.607Z,97399.40
2022-11-16T16:52:53.498Z,97400.02
2022-11-16T16:57:57.745Z,97394.95
2022-11-16T17:02:59.580Z,97394.95
2022-11-16T17:08:01.762Z,97397.29
2022-11-16T17:13:03.971Z,97401.88
2022-11-16T17:18:05.856Z,97401.00
2022-11-16T17:23:07.679Z,97407.00
2022-11-16T17:28:09.531Z,97404.66
2022-11-16T17:33:11.417Z,97401.11
2022-11-16T17:38:13.365Z,97395.48
2022-11-16T17:43:15.150Z,97391.96
2022-11-16T17:48:17.023Z,97393.27
2022-11-16T17:53:18.837Z,97388.84
2022-11-16T17:58:21.298Z,97390.77
2022-11-16T18:03:28.376Z,97396.77
2022-11-16T18:08:32.065Z,97400.16
2022-11-16T18:13:34.713Z,97402.27
2022-11-16T18:18:38.500Z,97392.69
2022-11-16T18:23:40.721Z,97392.94
2022-11-16T18:28:45.305Z,97394.80
2022-11-16T18:33:49.416Z,97395.55
2022-11-16T18:38:51.397Z,97394.42
2022-11-16T18:43:55.502Z,97389.34
2022-11-16T18:48:58.124Z,97390.39
2022-11-16T18:54:00.016Z,97397.85
2022-11-16T18:59:02.985Z,97399.88
2022-11-16T19:04:05.083Z,97393.21
2022-11-16T19:09:09.838Z,97393.82
2022-11-16T19:14:11.711Z,97394.99
2022-11-16T19:19:14.077Z,97394.05
2022-11-16T19:24:15.957Z,97396.77
2022-11-16T19:29:17.773Z,97396.30
2022-11-16T19:34:19.681Z,97396.48
2022-11-16T19:39:21.479Z,97400.55
2022-11-16T19:44:23.462Z,97402.64
2022-11-16T19:49:26.232Z,97405.59
2022-11-16T19:54:28.178Z,97403.20
2022-11-16T19:59:30.013Z,97395.94
2022-11-16T20:04:35.649Z,97399.08
2022-11-16T20:09:37.594Z,97394.53
2022-11-16T20:14:39.531Z,97394.04
2022-11-16T20:19:41.954Z,97396.85
2022-11-16T20:24:43.828Z,97404.84
2022-11-16T20:29:45.936Z,97408.73
2022-11-16T20:34:47.766Z,97409.00
2022-11-16T20:39:52.727Z,97404.77
2022-11-16T20:44:54.645Z,97406.88
2022-11-16T20:49:58.598Z,97414.98
2022-11-16T20:55:00.594Z,97415.11
2022-11-16T21:00:02.490Z,97413.59
2022-11-16T21:05:04.591Z,97412.61
2022-11-16T21:10:19.426Z,97404.77
2022-11-16T21:15:21.367Z,97407.18
2022-11-16T21:20:27.951Z,97409.23
2022-11-16T21:25:30.536Z,97409.33
2022-11-16T21:30:32.410Z,97405.29
2022-11-16T21:35:34.383Z,97408.05
2022-11-16T21:40:36.288Z,97411.46
2022-11-16T21:45:38.123Z,97410.13
2022-11-16T21:50:41.311Z,97412.33
2022-11-16T21:55:49.724Z,97417.95
2022-11-16T22:00:56.485Z,97418.70
2022-11-16T22:06:19.104Z,97420.55
2022-11-16T22:11:22.449Z,97420.39
2022-11-16T22:16:26.992Z,97424.48
2022-11-16T22:21:28.903Z,97428.04
2022-11-16T22:26:30.752Z,97428.41
2022-11-16T22:31:33.646Z,97439.27
2022-11-16T22:36:35.540Z,97444.45
2022-11-16T22:41:37.421Z,97445.89
2022-11-16T22:46:39.304Z,97442.73
2022-11-16T22:51:41.268Z,97444.80
2022-11-16T22:56:43.824Z,97455.27
2022-11-16T23:01:45.913Z,97453.70
2022-11-16T23:06:47.931Z,97441.70
2022-11-16T23:12:08.744Z,97438.33
2022-11-16T23:17:10.673Z,97438.02
2022-11-16T23:22:36.980Z,97439.33
2022-11-16T23:27:55.615Z,97440.81
2022-11-16T23:32:57.522Z,97436.64
2022-11-16T23:38:01.638Z,97436.06
2022-11-16T23:43:23.368Z,97430.61
2022-11-16T23:48:25.226Z,97425.55
2022-11-16T23:53:27.232Z,97419.27
2022-11-16T23:58:29.104Z,97419.52
